Time,TemperatureF,DewpointF,PressureIn,WindDirection,WindDirectionDegrees,WindSpeedMPH,WindSpeedGustMPH,Humidity,HourlyPrecipIn,Conditions,Clouds,dailyrainin,SoftwareType,DateUTC
2013-11-20 00:00:00,56.6,42.9,29.90,SSE,161,6.0,15.0,60,0.00,,---,0.00,VWS V14.01,2013-11-20 06:00:00,
2013-11-20 00:02:00,56.5,43.2,29.90,South,178,3.0,10.0,61,0.00,,---,0.00,VWS V14.01,2013-11-20 06:02:00,
2013-11-20 00:05:00,56.7,43.4,29.90,SSE,159,2.0,11.0,61,0.00,,---,0.00,VWS V14.01,2013-11-20 06:05:00,
2013-11-20 00:08:00,56.7,43.4,29.90,SSE,150,2.0,11.0,61,0.00,,---,0.00,VWS V14.01,2013-11-20 06:08:00,
2013-11-20 00:11:00,56.6,43.3,29.90,SSE,155,4.0,11.0,61,0.00,,---,0.00,VWS V14.01,2013-11-20 06:11:00,
2013-11-20 00:14:00,56.7,43.4,29.90,SSE,150,7.0,11.0,61,0.00,,---,0.00,VWS V14.01,2013-11-20 06:14:00,
2013-11-20 00:17:00,56.7,43.4,29.90,South,171,0.0,11.0,61,0.00,,---,0.00,VWS V14.01,2013-11-20 06:17:00,
2013-11-20 00:20:00,56.6,43.8,29.90,SSE,162,3.0,11.0,62,0.00,,---,0.00,VWS V14.01,2013-11-20 06:20:00,
2013-11-20 00:23:00,56.7,43.8,29.90,South,183,1.0,11.0,62,0.00,,---,0.00,VWS V14.01,2013-11-20 06:23:00,
2013-11-20 00:26:00,56.6,43.8,29.90,South,175,3.0,11.0,62,0.00,,---,0.00,VWS V14.01,2013-11-20 06:26:00,
2013-11-20 00:29:00,56.6,43.8,29.90,South,178,2.0,11.0,62,0.00,,---,0.00,VWS V14.01,2013-11-20 06:29:00,
2013-11-20 00:30:00,56.5,43.7,29.90,SSE,162,5.0,11.0,62,0.00,,---,0.00,VWS V14.01,2013-11-20 06:30:00,
2013-11-20 00:32:00,56.5,44.1,29.90,South,178,1.0,14.0,63,0.00,,---,0.00,VWS V14.01,2013-11-20 06:32:00,
2013-11-20 00:35:00,56.5,44.1,29.90,South,169,2.0,14.0,63,0.00,,---,0.00,VWS V14.01,2013-11-20 06:35:00,
2013-11-20 00:38:00,56.6,44.2,29.90,SSE,150,4.0,14.0,63,0.00,,---,0.00,VWS V14.01,2013-11-20 06:38:00,
2013-11-20 00:41:00,56.6,44.2,29.90,SSE,162,3.0,14.0,63,0.00,,---,0.00,VWS V14.01,2013-11-20 06:41:00,
2013-11-20 00:53:00,56.4,44.4,29.90,SE,142,3.0,14.0,64,0.00,,---,0.00,VWS V14.01,2013-11-20 06:53:00,
2013-11-20 00:56:00,56.4,44.8,29.89,SSE,148,4.0,14.0,65,0.00,,---,0.00,VWS V14.01,2013-11-20 06:56:00,
2013-11-20 00:59:00,56.3,44.7,29.89,SSE,157,5.0,14.0,65,0.00,,---,0.00,VWS V14.01,2013-11-20 06:59:00,
2013-11-20 01:00:00,56.3,44.7,29.89,SSE,157,4.0,14.0,65,0.00,,---,0.00,VWS V14.01,2013-11-20 07:00:00,
2013-11-20 01:02:00,56.4,44.8,29.89,SE,139,3.0,9.0,65,0.00,,---,0.00,VWS V14.01,2013-11-20 07:02:00,
2013-11-20 01:05:00,56.3,44.7,29.89,SE,140,2.0,11.0,65,0.00,,---,0.00,VWS V14.01,2013-11-20 07:05:00,
2013-11-20 01:08:00,56.2,44.6,29.89,SSE,162,8.0,11.0,65,0.00,,---,0.00,VWS V14.01,2013-11-20 07:08:00,
2013-11-20 01:11:00,56.2,45.0,29.89,SSE,150,4.0,11.0,66,0.00,,---,0.00,VWS V14.01,2013-11-20 07:11:00,
2013-11-20 01:14:00,56.2,45.0,29.90,SSE,157,1.0,11.0,66,0.00,,---,0.00,VWS V14.01,2013-11-20 07:14:00,
2013-11-20 01:17:00,56.1,44.9,29.90,SSE,162,5.0,11.0,66,0.00,,---,0.00,VWS V14.01,2013-11-20 07:17:00,
2013-11-20 01:20:00,56.0,44.8,29.90,SSE,161,4.0,11.0,66,0.00,,---,0.00,VWS V14.01,2013-11-20 07:20:00,
2013-11-20 01:23:00,56.0,45.2,29.90,South,171,6.0,11.0,67,0.00,,---,0.00,VWS V14.01,2013-11-20 07:23:00,
2013-11-20 01:32:00,56.0,45.2,29.90,SSE,156,4.0,11.0,67,0.00,,---,0.00,VWS V14.01,2013-11-20 07:32:00,
2013-11-20 01:35:00,55.9,45.1,29.89,South,169,2.0,11.0,67,0.00,,---,0.00,VWS V14.01,2013-11-20 07:35:00,
2013-11-20 01:38:00,55.8,45.4,29.89,SSE,161,2.0,11.0,68,0.00,,---,0.00,VWS V14.01,2013-11-20 07:38:00,
2013-11-20 01:43:00,56.5,44.5,29.90,SSE,157,4.0,14.0,64,0.00,,---,0.00,VWS V14.01,2013-11-20 07:43:00,
2013-11-20 01:44:00,55.6,45.2,29.89,SSE,167,6.0,11.0,68,0.00,,---,0.00,VWS V14.01,2013-11-20 07:44:00,
2013-11-20 01:49:00,56.4,44.4,29.90,SE,146,9.0,14.0,64,0.00,,---,0.00,VWS V14.01,2013-11-20 07:49:00,
2013-11-20 01:50:00,55.5,45.5,29.89,SE,140,3.0,13.0,69,0.00,,---,0.00,VWS V14.01,2013-11-20 07:50:00,
2013-11-20 01:53:00,55.5,45.5,29.89,SE,144,8.0,13.0,69,0.00,,---,0.00,VWS V14.01,2013-11-20 07:53:00,
2013-11-20 01:56:00,55.4,45.4,29.89,SSE,151,7.0,13.0,69,0.00,,---,0.00,VWS V14.01,2013-11-20 07:56:00,
2013-11-20 02:12:00,55.2,45.6,29.89,SSE,150,8.0,11.0,70,0.00,,---,0.00,VWS V14.01,2013-11-20 08:12:00,
2013-11-20 02:15:00,55.3,45.7,29.89,SSE,157,4.0,11.0,70,0.00,,---,0.00,VWS V14.01,2013-11-20 08:15:00,
2013-11-20 02:18:00,55.2,46.0,29.89,SSE,152,7.0,11.0,71,0.00,,---,0.00,VWS V14.01,2013-11-20 08:18:00,
2013-11-20 02:21:00,55.2,46.0,29.89,SSE,163,6.0,11.0,71,0.00,,---,0.00,VWS V14.01,2013-11-20 08:21:00,
2013-11-20 02:24:00,55.3,46.1,29.88,SSE,148,7.0,14.0,71,0.00,,---,0.00,VWS V14.01,2013-11-20 08:24:00,
2013-11-20 02:25:00,56.0,45.2,29.90,SSE,165,5.0,13.0,67,0.00,,---,0.00,VWS V14.01,2013-11-20 08:25:00,
2013-11-20 02:27:00,55.4,46.2,29.88,SE,140,4.0,14.0,71,0.00,,---,0.00,VWS V14.01,2013-11-20 08:27:00,
2013-11-20 02:30:00,55.3,46.1,29.88,SE,136,11.0,16.0,71,0.00,,---,0.00,VWS V14.01,2013-11-20 08:30:00,
2013-11-20 02:33:00,55.3,46.1,29.88,SSE,151,7.0,12.0,71,0.00,,---,0.00,VWS V14.01,2013-11-20 08:33:00,
2013-11-20 02:36:00,55.2,46.0,29.88,SSE,154,5.0,12.0,71,0.00,,---,0.00,VWS V14.01,2013-11-20 08:36:00,
2013-11-20 02:39:00,55.1,46.2,29.88,SSE,152,6.0,13.0,72,0.00,,---,0.00,VWS V14.01,2013-11-20 08:39:00,
2013-11-20 02:40:00,55.7,45.3,29.89,SSE,165,2.0,11.0,68,0.00,,---,0.00,VWS V14.01,2013-11-20 08:40:00,
2013-11-20 02:42:00,55.1,46.2,29.88,SSE,153,5.0,13.0,72,0.00,,---,0.00,VWS V14.01,2013-11-20 08:42:00,
2013-11-20 02:46:00,55.6,45.2,29.89,SE,140,8.0,11.0,68,0.00,,---,0.00,VWS V14.01,2013-11-20 08:46:00,
2013-11-20 02:48:00,55.2,46.7,29.88,SE,136,10.0,14.0,73,0.00,,---,0.00,VWS V14.01,2013-11-20 08:48:00,
2013-11-20 02:54:00,55.3,46.8,29.87,SE,132,7.0,14.0,73,0.00,,---,0.00,VWS V14.01,2013-11-20 08:54:00,
2013-11-20 02:58:00,55.4,45.4,29.89,SSE,155,1.0,13.0,69,0.00,,---,0.00,VWS V14.01,2013-11-20 08:58:00,
2013-11-20 03:00:00,55.7,47.5,29.87,SSE,156,4.0,15.0,74,0.00,,---,0.00,VWS V14.01,2013-11-20 09:00:00,
2013-11-20 03:05:00,55.3,45.3,29.89,SSE,168,4.0,9.0,69,0.00,,---,0.00,VWS V14.01,2013-11-20 09:05:00,
2013-11-20 03:09:00,55.8,47.7,29.87,SSE,153,7.0,13.0,74,0.00,,---,0.00,VWS V14.01,2013-11-20 09:09:00,
2013-11-20 03:15:00,55.8,48.0,29.87,SSE,157,2.0,15.0,75,0.00,,---,0.00,VWS V14.01,2013-11-20 09:15:00,
2013-11-20 03:21:00,55.6,47.8,29.87,SSE,159,5.0,15.0,75,0.00,,---,0.00,VWS V14.01,2013-11-20 09:21:00,
2013-11-20 03:30:00,55.5,47.7,29.87,SSE,163,3.0,15.0,75,0.00,,---,0.00,VWS V14.01,2013-11-20 09:30:00,
2013-11-20 03:33:00,55.5,48.1,29.87,SSE,148,3.0,10.0,76,0.00,,---,0.00,VWS V14.01,2013-11-20 09:33:00,
2013-11-20 03:36:00,55.5,48.1,29.87,SSE,147,2.0,10.0,76,0.00,,---,0.00,VWS V14.01,2013-11-20 09:36:00,
2013-11-20 03:44:00,55.1,46.6,29.88,SSE,154,10.0,13.0,73,0.00,,---,0.00,VWS V14.01,2013-11-20 09:44:00,
2013-11-20 03:48:00,55.4,48.3,29.86,SSE,153,6.0,10.0,77,0.00,,---,0.00,VWS V14.01,2013-11-20 09:48:00,
2013-11-20 03:50:00,55.3,46.8,29.88,SE,136,4.0,14.0,73,0.00,,---,0.00,VWS V14.01,2013-11-20 09:50:00,
2013-11-20 03:54:00,55.5,48.8,29.87,SSE,159,1.0,11.0,78,0.00,,---,0.00,VWS V14.01,2013-11-20 09:54:00,
2013-11-20 03:56:00,55.5,47.0,29.87,SSE,164,4.0,14.0,73,0.00,,---,0.00,VWS V14.01,2013-11-20 09:56:00,
2013-11-20 04:00:00,55.5,48.8,29.86,SSE,163,1.0,11.0,78,0.00,,---,0.00,VWS V14.01,2013-11-20 10:00:00,
2013-11-20 04:02:00,55.8,47.7,29.87,ESE,114,12.0,13.0,74,0.00,,---,0.00,VWS V14.01,2013-11-20 10:02:00,
2013-11-20 04:11:00,55.7,47.9,29.87,SE,133,5.0,15.0,75,0.00,,---,0.00,VWS V14.01,2013-11-20 10:11:00,
2013-11-20 04:16:00,55.4,49.0,29.86,SE,145,8.0,10.0,79,0.00,,---,0.00,VWS V14.01,2013-11-20 10:16:00,
2013-11-20 04:17:00,55.7,47.5,29.87,SE,141,3.0,15.0,74,0.00,,---,0.00,VWS V14.01,2013-11-20 10:17:00,
2013-11-20 04:23:00,55.5,47.7,29.87,SE,144,8.0,15.0,75,0.00,,---,0.00,VWS V14.01,2013-11-20 10:23:00,
2013-11-20 04:26:00,55.5,47.7,29.87,SSE,167,4.0,15.0,75,0.00,,---,0.00,VWS V14.01,2013-11-20 10:26:00,
2013-11-20 04:29:00,55.5,47.7,29.87,SSE,168,4.0,6.0,75,0.00,,---,0.00,VWS V14.01,2013-11-20 10:29:00,
2013-11-20 04:31:00,55.5,49.4,29.86,SSE,147,6.0,6.0,80,0.00,,---,0.00,VWS V14.01,2013-11-20 10:31:00,
2013-11-20 04:38:00,55.4,48.0,29.87,South,186,2.0,10.0,76,0.00,,---,0.00,VWS V14.01,2013-11-20 10:38:00,
2013-11-20 04:41:00,55.4,48.0,29.87,South,171,3.0,10.0,76,0.00,,---,0.00,VWS V14.01,2013-11-20 10:41:00,
2013-11-20 04:49:00,56.2,50.5,29.86,SSE,167,5.0,12.0,81,0.00,,---,0.00,VWS V14.01,2013-11-20 10:49:00,
2013-11-20 04:50:00,55.4,48.3,29.87,SSE,163,3.0,11.0,77,0.00,,---,0.00,VWS V14.01,2013-11-20 10:50:00,
2013-11-20 04:52:00,56.4,50.7,29.86,SSE,167,1.0,12.0,81,0.00,,---,0.00,VWS V14.01,2013-11-20 10:52:00,
2013-11-20 04:56:00,55.5,48.8,29.87,SSE,147,3.0,11.0,78,0.00,,---,0.00,VWS V14.01,2013-11-20 10:56:00,
2013-11-20 04:58:00,56.7,50.9,29.86,South,174,4.0,12.0,81,0.00,,---,0.00,VWS V14.01,2013-11-20 10:58:00,
2013-11-20 04:59:00,55.5,48.8,29.86,SSE,159,3.0,9.0,78,0.00,,---,0.00,VWS V14.01,2013-11-20 10:59:00,
2013-11-20 05:00:00,56.8,51.0,29.86,SE,140,7.0,12.0,81,0.00,,---,0.00,VWS V14.01,2013-11-20 11:00:00,
2013-11-20 05:02:00,55.5,48.8,29.86,SSE,157,1.0,9.0,78,0.00,,---,0.00,VWS V14.01,2013-11-20 11:02:00,
2013-11-20 05:04:00,57.0,50.9,29.86,South,180,1.0,10.0,80,0.00,,---,0.00,VWS V14.01,2013-11-20 11:04:00,
2013-11-20 05:05:00,55.4,48.7,29.86,SSE,159,3.0,9.0,78,0.00,,---,0.00,VWS V14.01,2013-11-20 11:05:00,
2013-11-20 05:10:00,57.2,51.1,29.86,SSE,166,0.0,10.0,80,0.00,,---,0.00,VWS V14.01,2013-11-20 11:10:00,
2013-11-20 05:11:00,55.5,49.1,29.86,SSE,163,2.0,10.0,79,0.00,,---,0.00,VWS V14.01,2013-11-20 11:11:00,
2013-11-20 05:16:00,57.4,51.6,29.86,SSE,154,9.0,10.0,81,0.00,,---,0.00,VWS V14.01,2013-11-20 11:16:00,
2013-11-20 05:18:00,55.5,49.1,29.86,SSE,154,4.0,10.0,79,0.00,,---,0.00,VWS V14.01,2013-11-20 11:18:00,
2013-11-20 05:21:00,55.6,49.2,29.86,SSE,161,5.0,10.0,79,0.00,,---,0.00,VWS V14.01,2013-11-20 11:21:00,
2013-11-20 05:24:00,55.5,49.1,29.86,SE,141,7.0,10.0,79,0.00,,---,0.00,VWS V14.01,2013-11-20 11:24:00,
2013-11-20 05:27:00,55.5,49.4,29.86,South,173,0.0,10.0,80,0.00,,---,0.00,VWS V14.01,2013-11-20 11:27:00,
2013-11-20 05:30:00,58.0,51.9,29.86,SSE,156,4.0,11.0,80,0.00,,---,0.00,VWS V14.01,2013-11-20 11:30:00,
2013-11-20 05:33:00,55.5,49.4,29.86,SSE,153,4.0,9.0,80,0.00,,---,0.00,VWS V14.01,2013-11-20 11:33:00,
2013-11-20 05:39:00,55.8,50.1,29.86,SE,146,5.0,10.0,81,0.00,,---,0.00,VWS V14.01,2013-11-20 11:39:00,
2013-11-20 05:45:00,56.1,50.4,29.86,SSE,161,5.0,12.0,81,0.00,,---,0.00,VWS V14.01,2013-11-20 11:45:00,
2013-11-20 05:54:00,56.6,50.8,29.86,SSE,159,1.0,12.0,81,0.00,,---,0.00,VWS V14.01,2013-11-20 11:54:00,
2013-11-20 06:00:00,56.9,51.1,29.86,SSE,157,5.0,10.0,81,0.00,,---,0.00,VWS V14.01,2013-11-20 12:00:00,
2013-11-20 06:06:00,57.1,51.0,29.86,South,176,4.0,10.0,80,0.00,,---,0.00,VWS V14.01,2013-11-20 12:06:00,
2013-11-20 06:12:00,57.3,51.5,29.86,South,173,5.0,10.0,81,0.00,,---,0.00,VWS V14.01,2013-11-20 12:12:00,
2013-11-20 06:18:00,57.5,51.7,29.86,South,175,1.0,10.0,81,0.00,,---,0.00,VWS V14.01,2013-11-20 12:18:00,
2013-11-20 06:21:00,57.6,51.8,29.86,SE,134,5.0,10.0,81,0.00,,---,0.00,VWS V14.01,2013-11-20 12:21:00,
2013-11-20 06:24:00,57.8,52.0,29.86,SSE,163,7.0,10.0,81,0.00,,---,0.00,VWS V14.01,2013-11-20 12:24:00,
2013-11-20 06:27:00,58.0,52.2,29.86,SSE,165,6.0,11.0,81,0.00,,---,0.00,VWS V14.01,2013-11-20 12:27:00,
2013-11-20 06:30:00,58.1,52.0,29.86,SSE,158,2.0,7.0,80,0.00,,---,0.00,VWS V14.01,2013-11-20 12:30:00,
2013-11-20 06:33:00,58.2,52.1,29.86,South,174,8.0,9.0,80,0.00,,---,0.00,VWS V14.01,2013-11-20 12:33:00,
2013-11-20 06:36:00,58.3,52.5,29.86,SSE,158,2.0,10.0,81,0.00,,---,0.00,VWS V14.01,2013-11-20 12:36:00,
2013-11-20 06:39:00,58.4,52.3,29.86,SSE,165,4.0,10.0,80,0.00,,---,0.00,VWS V14.01,2013-11-20 12:39:00,
2013-11-20 06:45:00,58.6,52.5,29.86,South,182,5.0,10.0,80,0.00,,---,0.00,VWS V14.01,2013-11-20 12:45:00,
2013-11-20 06:48:00,58.6,52.5,29.87,South,176,0.0,10.0,80,0.00,,---,0.00,VWS V14.01,2013-11-20 12:48:00,
2013-11-20 06:54:00,58.7,52.6,29.87,South,180,0.0,10.0,80,0.00,,---,0.00,VWS V14.01,2013-11-20 12:54:00,
2013-11-20 06:57:00,58.7,52.6,29.87,SSE,159,2.0,10.0,80,0.00,,---,0.00,VWS V14.01,2013-11-20 12:57:00,
2013-11-20 07:00:00,59.5,53.0,29.89,SSE,168,0.0,7.0,79,0.00,,---,0.00,VWS V14.01,2013-11-20 13:00:00,
2013-11-20 07:03:00,58.8,52.7,29.88,South,180,0.0,7.0,80,0.00,,---,0.00,VWS V14.01,2013-11-20 13:03:00,
2013-11-20 07:09:00,58.8,52.7,29.87,SSW,205,5.0,7.0,80,0.00,,---,0.00,VWS V14.01,2013-11-20 13:09:00,
2013-11-20 07:12:00,58.9,52.8,29.87,South,174,10.0,10.0,80,0.00,,---,0.00,VWS V14.01,2013-11-20 13:12:00,
2013-11-20 07:18:00,59.0,52.8,29.88,SSW,200,4.0,10.0,80,0.00,,---,0.00,VWS V14.01,2013-11-20 13:18:00,
2013-11-20 07:21:00,59.1,52.9,29.88,SSE,166,7.0,10.0,80,0.00,,---,0.00,VWS V14.01,2013-11-20 13:21:00,
2013-11-20 07:23:00,60.0,53.5,29.88,SE,139,5.0,9.0,79,0.00,,---,0.00,VWS V14.01,2013-11-20 13:23:00,
2013-11-20 07:24:00,59.1,52.9,29.88,South,174,2.0,10.0,80,0.00,,---,0.00,VWS V14.01,2013-11-20 13:24:00,
2013-11-20 07:27:00,59.1,52.9,29.88,South,172,2.0,10.0,80,0.00,,---,0.00,VWS V14.01,2013-11-20 13:27:00,
2013-11-20 07:30:00,60.2,53.3,29.88,SSW,192,6.0,12.0,78,0.00,,---,0.00,VWS V14.01,2013-11-20 13:30:00,
2013-11-20 07:32:00,60.3,53.4,29.88,South,185,3.0,10.0,78,0.00,,---,0.00,VWS V14.01,2013-11-20 13:32:00,
2013-11-20 07:34:00,59.1,52.6,29.88,SSE,164,4.0,7.0,79,0.00,,---,0.00,VWS V14.01,2013-11-20 13:34:00,
2013-11-20 07:37:00,59.1,52.6,29.88,SSE,168,0.0,7.0,79,0.00,,---,0.00,VWS V14.01,2013-11-20 13:37:00,
2013-11-20 07:40:00,59.1,52.9,29.88,South,181,0.0,7.0,80,0.00,,---,0.00,VWS V14.01,2013-11-20 13:40:00,
2013-11-20 07:43:00,59.2,53.0,29.88,SSW,196,0.0,7.0,80,0.00,,---,0.00,VWS V14.01,2013-11-20 13:43:00,
2013-11-20 07:49:00,59.3,53.1,29.89,South,188,4.0,7.0,80,0.00,,---,0.00,VWS V14.01,2013-11-20 13:49:00,
2013-11-20 07:52:00,59.4,52.9,29.89,South,178,0.0,7.0,79,0.00,,---,0.00,VWS V14.01,2013-11-20 13:52:00,
2013-11-20 07:58:00,59.4,52.9,29.89,SSE,168,0.0,7.0,79,0.00,,---,0.00,VWS V14.01,2013-11-20 13:58:00,
2013-11-20 07:59:00,61.0,53.8,29.88,South,171,5.0,13.0,77,0.00,,---,0.00,VWS V14.01,2013-11-20 13:59:00,
2013-11-20 08:00:00,60.9,53.7,29.88,SSE,158,0.0,13.0,77,0.00,,---,0.00,VWS V14.01,2013-11-20 14:00:00,
2013-11-20 08:01:00,59.5,53.0,29.89,SSE,155,3.0,3.0,79,0.00,,---,0.00,VWS V14.01,2013-11-20 14:01:00,
2013-11-20 08:07:00,59.6,53.1,29.89,SSE,151,1.0,7.0,79,0.00,,---,0.00,VWS V14.01,2013-11-20 14:07:00,
2013-11-20 08:10:00,59.7,53.2,29.89,SSE,159,5.0,7.0,79,0.00,,---,0.00,VWS V14.01,2013-11-20 14:10:00,
2013-11-20 08:13:00,59.8,53.3,29.89,SSE,150,0.0,8.0,79,0.00,,---,0.00,VWS V14.01,2013-11-20 14:13:00,
2013-11-20 08:16:00,59.8,53.3,29.88,SSE,159,6.0,9.0,79,0.00,,---,0.00,VWS V14.01,2013-11-20 14:16:00,
2013-11-20 08:19:00,59.9,53.4,29.88,SSE,165,5.0,9.0,79,0.00,,---,0.00,VWS V14.01,2013-11-20 14:19:00,
2013-11-20 08:25:00,60.1,53.6,29.88,SSW,200,8.0,11.0,79,0.00,,---,0.00,VWS V14.01,2013-11-20 14:25:00,
2013-11-20 08:28:00,60.2,53.3,29.88,South,180,7.0,12.0,78,0.00,,---,0.00,VWS V14.01,2013-11-20 14:28:00,
2013-11-20 08:29:00,61.8,54.2,29.88,SSW,199,7.0,13.0,76,0.00,,---,0.00,VWS V14.01,2013-11-20 14:29:00,
2013-11-20 08:34:00,60.4,53.5,29.88,South,181,5.0,10.0,78,0.00,,---,0.00,VWS V14.01,2013-11-20 14:34:00,
2013-11-20 08:37:00,60.6,53.7,29.88,South,172,3.0,10.0,78,0.00,,---,0.00,VWS V14.01,2013-11-20 14:37:00,
2013-11-20 08:40:00,60.7,53.8,29.87,SE,140,5.0,10.0,78,0.00,,---,0.00,VWS V14.01,2013-11-20 14:40:00,
2013-11-20 08:43:00,60.7,53.8,29.88,SSE,164,5.0,13.0,78,0.00,,---,0.00,VWS V14.01,2013-11-20 14:43:00,
2013-11-20 08:49:00,60.8,53.9,29.88,South,178,7.0,13.0,78,0.00,,---,0.00,VWS V14.01,2013-11-20 14:49:00,
2013-11-20 08:55:00,60.9,53.7,29.88,SE,136,1.0,13.0,77,0.00,,---,0.00,VWS V14.01,2013-11-20 14:55:00,
2013-11-20 09:01:00,61.0,53.8,29.88,South,169,7.0,13.0,77,0.00,,---,0.00,VWS V14.01,2013-11-20 15:01:00,
2013-11-20 09:04:00,61.1,53.8,29.88,South,179,1.0,13.0,77,0.00,,---,0.00,VWS V14.01,2013-11-20 15:04:00,
2013-11-20 09:07:00,61.1,53.8,29.88,SSW,198,5.0,13.0,77,0.00,,---,0.00,VWS V14.01,2013-11-20 15:07:00,
2013-11-20 09:10:00,61.2,53.9,29.89,South,184,7.0,13.0,77,0.00,,---,0.00,VWS V14.01,2013-11-20 15:10:00,
2013-11-20 09:13:00,61.4,54.1,29.89,South,177,3.0,13.0,77,0.00,,---,0.00,VWS V14.01,2013-11-20 15:13:00,
2013-11-20 09:19:00,61.5,53.9,29.89,SSE,154,4.0,13.0,76,0.00,,---,0.00,VWS V14.01,2013-11-20 15:19:00,
2013-11-20 09:22:00,61.6,54.0,29.88,South,183,3.0,13.0,76,0.00,,---,0.00,VWS V14.01,2013-11-20 15:22:00,
2013-11-20 09:25:00,61.7,54.1,29.88,South,184,0.0,13.0,76,0.00,,---,0.00,VWS V14.01,2013-11-20 15:25:00,
2013-11-20 09:29:00,61.8,54.2,29.88,SSE,148,7.0,13.0,76,0.00,,---,0.00,VWS V14.01,2013-11-20 15:29:00,
2013-11-20 09:31:00,61.9,54.3,29.88,South,177,6.0,11.0,76,0.00,,---,0.00,VWS V14.01,2013-11-20 15:31:00,
2013-11-20 09:34:00,62.2,54.5,29.88,South,173,8.0,11.0,76,0.00,,---,0.00,VWS V14.01,2013-11-20 15:34:00,
2013-11-20 09:37:00,62.3,54.3,29.88,SSE,161,5.0,11.0,75,0.00,,---,0.00,VWS V14.01,2013-11-20 15:37:00,
2013-11-20 09:43:00,62.7,54.7,29.88,South,184,10.0,14.0,75,0.00,,---,0.00,VWS V14.01,2013-11-20 15:43:00,
2013-11-20 09:46:00,63.0,54.6,29.87,SSW,207,14.0,14.0,74,0.00,,---,0.00,VWS V14.01,2013-11-20 15:46:00,
2013-11-20 09:50:00,63.2,54.8,29.87,South,173,2.0,14.0,74,0.00,,---,0.00,VWS V14.01,2013-11-20 15:50:00,
2013-11-20 09:53:00,63.7,55.3,29.88,South,178,9.0,14.0,74,0.00,,---,0.00,VWS V14.01,2013-11-20 15:53:00,
2013-11-20 09:56:00,64.0,55.2,29.87,SSW,205,6.0,14.0,73,0.00,,---,0.00,VWS V14.01,2013-11-20 15:56:00,
2013-11-20 09:59:00,64.3,55.1,29.88,SSW,194,7.0,14.0,72,0.00,,---,0.00,VWS V14.01,2013-11-20 15:59:00,
2013-11-20 10:02:00,64.4,55.2,29.88,South,171,5.0,12.0,72,0.00,,---,0.00,VWS V14.01,2013-11-20 16:02:00,
2013-11-20 10:05:00,64.5,55.3,29.87,South,173,5.0,12.0,72,0.00,,---,0.00,VWS V14.01,2013-11-20 16:05:00,
2013-11-20 10:11:00,64.5,55.3,29.87,South,180,10.0,12.0,72,0.00,,---,0.00,VWS V14.01,2013-11-20 16:11:00,
2013-11-20 10:14:00,64.6,55.4,29.87,South,184,6.0,12.0,72,0.00,,---,0.00,VWS V14.01,2013-11-20 16:14:00,
2013-11-20 10:20:00,65.0,55.8,29.87,South,188,8.0,12.0,72,0.00,,---,0.00,VWS V14.01,2013-11-20 16:20:00,
2013-11-20 10:26:00,65.6,56.0,29.86,SSW,192,8.0,13.0,71,0.00,,---,0.00,VWS V14.01,2013-11-20 16:26:00,
2013-11-20 10:29:00,65.8,56.2,29.87,SSE,161,12.0,13.0,71,0.00,,---,0.00,VWS V14.01,2013-11-20 16:29:00,
2013-11-20 10:35:00,66.2,56.5,29.87,South,184,3.0,14.0,71,0.00,,---,0.00,VWS V14.01,2013-11-20 16:35:00,
2013-11-20 10:38:00,66.4,56.7,29.86,SSW,202,6.0,15.0,71,0.00,,---,0.00,VWS V14.01,2013-11-20 16:38:00,
2013-11-20 10:41:00,66.6,56.9,29.87,South,177,8.0,15.0,71,0.00,,---,0.00,VWS V14.01,2013-11-20 16:41:00,
2013-11-20 10:44:00,66.8,57.1,29.87,SSW,198,9.0,15.0,71,0.00,,---,0.00,VWS V14.01,2013-11-20 16:44:00,
2013-11-20 10:47:00,66.9,57.2,29.87,SSW,199,7.0,16.0,71,0.00,,---,0.00,VWS V14.01,2013-11-20 16:47:00,
2013-11-20 10:53:00,67.0,57.3,29.87,South,186,8.0,16.0,71,0.00,,---,0.00,VWS V14.01,2013-11-20 16:53:00,
2013-11-20 10:56:00,67.1,57.4,29.87,SSE,165,5.0,16.0,71,0.00,,---,0.00,VWS V14.01,2013-11-20 16:56:00,
2013-11-20 10:59:00,67.2,57.5,29.87,SSW,211,8.0,16.0,71,0.00,,---,0.00,VWS V14.01,2013-11-20 16:59:00,
2013-11-20 11:02:00,67.3,57.6,29.86,SSW,201,6.0,10.0,71,0.00,,---,0.00,VWS V14.01,2013-11-20 17:02:00,
2013-11-20 11:05:00,67.4,57.7,29.86,SSW,195,5.0,17.0,71,0.00,,---,0.00,VWS V14.01,2013-11-20 17:05:00,
2013-11-20 11:08:00,67.5,57.8,29.86,South,183,9.0,17.0,71,0.00,,---,0.00,VWS V14.01,2013-11-20 17:08:00,
2013-11-20 11:14:00,67.5,57.8,29.86,SSW,200,8.0,18.0,71,0.00,,---,0.00,VWS V14.01,2013-11-20 17:14:00,
2013-11-20 11:17:00,67.7,58.0,29.86,SSW,212,18.0,18.0,71,0.00,,---,0.00,VWS V14.01,2013-11-20 17:17:00,
2013-11-20 11:20:00,67.7,57.6,29.85,SSW,203,4.0,18.0,70,0.00,,---,0.00,VWS V14.01,2013-11-20 17:20:00,
2013-11-20 11:23:00,68.1,58.0,29.85,South,180,11.0,18.0,70,0.00,,---,0.00,VWS V14.01,2013-11-20 17:23:00,
2013-11-20 11:26:00,68.5,57.9,29.85,South,190,9.0,18.0,69,0.00,,---,0.00,VWS V14.01,2013-11-20 17:26:00,
2013-11-20 11:29:00,68.5,57.9,29.85,SSW,192,9.0,16.0,69,0.00,,---,0.00,VWS V14.01,2013-11-20 17:29:00,
2013-11-20 11:32:00,68.7,58.1,29.85,South,189,4.0,16.0,69,0.00,,---,0.00,VWS V14.01,2013-11-20 17:32:00,
2013-11-20 11:35:00,69.0,58.0,29.85,SSW,200,7.0,16.0,68,0.00,,---,0.00,VWS V14.01,2013-11-20 17:35:00,
2013-11-20 11:38:00,69.2,58.2,29.85,SW,223,15.0,21.0,68,0.00,,---,0.00,VWS V14.01,2013-11-20 17:38:00,
2013-11-20 11:41:00,69.4,58.4,29.85,SSW,209,11.0,21.0,68,0.00,,---,0.00,VWS V14.01,2013-11-20 17:41:00,
2013-11-20 11:44:00,69.4,58.4,29.85,WSW,249,11.0,21.0,68,0.00,,---,0.00,VWS V14.01,2013-11-20 17:44:00,
2013-11-20 11:47:00,69.6,58.6,29.85,SSW,211,7.0,21.0,68,0.00,,---,0.00,VWS V14.01,2013-11-20 17:47:00,
2013-11-20 11:50:00,69.6,58.6,29.84,SSW,195,4.0,21.0,68,0.00,,---,0.00,VWS V14.01,2013-11-20 17:50:00,
2013-11-20 11:53:00,69.9,58.9,29.84,SSW,192,7.0,21.0,68,0.00,,---,0.00,VWS V14.01,2013-11-20 17:53:00,
2013-11-20 11:56:00,70.2,58.7,29.84,South,178,8.0,21.0,67,0.00,,---,0.00,VWS V14.01,2013-11-20 17:56:00,
2013-11-20 11:59:00,70.3,58.8,29.84,SSW,202,8.0,21.0,67,0.00,,---,0.00,VWS V14.01,2013-11-20 17:59:00,
2013-11-20 12:05:00,70.0,58.5,29.84,SW,220,9.0,17.0,67,0.00,,---,0.00,VWS V14.01,2013-11-20 18:05:00,
2013-11-20 12:08:00,69.9,58.5,29.84,SSW,199,9.0,18.0,67,0.00,,---,0.00,VWS V14.01,2013-11-20 18:08:00,
2013-11-20 12:12:00,69.7,58.7,29.84,SSW,203,9.0,18.0,68,0.00,,---,0.00,VWS V14.01,2013-11-20 18:12:00,
2013-11-20 12:15:00,69.6,58.6,29.84,SW,222,14.0,18.0,68,0.00,,---,0.00,VWS V14.01,2013-11-20 18:15:00,
2013-11-20 12:18:00,69.7,58.7,29.84,SSW,205,8.0,18.0,68,0.00,,---,0.00,VWS V14.01,2013-11-20 18:18:00,
2013-11-20 12:21:00,69.8,58.4,29.83,SSW,192,2.0,18.0,67,0.00,,---,0.00,VWS V14.01,2013-11-20 18:21:00,
2013-11-20 12:24:00,69.7,58.7,29.84,South,173,9.0,18.0,68,0.00,,---,0.00,VWS V14.01,2013-11-20 18:24:00,
2013-11-20 12:27:00,69.6,58.6,29.84,SSW,203,2.0,18.0,68,0.00,,---,0.00,VWS V14.01,2013-11-20 18:27:00,
2013-11-20 12:29:00,69.7,58.7,29.83,SSE,159,10.0,18.0,68,0.00,,---,0.00,VWS V14.01,2013-11-20 18:29:00,
2013-11-20 12:36:00,69.3,58.3,29.83,South,184,4.0,13.0,68,0.00,,---,0.00,VWS V14.01,2013-11-20 18:36:00,
2013-11-20 12:39:00,69.2,58.6,29.83,South,174,4.0,13.0,69,0.00,,---,0.00,VWS V14.01,2013-11-20 18:39:00,
2013-11-20 12:42:00,69.3,58.7,29.82,South,178,10.0,13.0,69,0.00,,---,0.00,VWS V14.01,2013-11-20 18:42:00,
2013-11-20 12:45:00,69.3,58.7,29.82,South,184,10.0,15.0,69,0.00,,---,0.00,VWS V14.01,2013-11-20 18:45:00,
2013-11-20 12:48:00,69.3,58.7,29.82,SSW,193,5.0,15.0,69,0.00,,---,0.00,VWS V14.01,2013-11-20 18:48:00,
2013-11-20 12:51:00,69.4,58.4,29.82,SSW,200,10.0,15.0,68,0.00,,---,0.00,VWS V14.01,2013-11-20 18:51:00,
2013-11-20 12:54:00,69.6,58.6,29.82,South,183,13.0,15.0,68,0.00,,---,0.00,VWS V14.01,2013-11-20 18:54:00,
2013-11-20 12:57:00,69.7,58.7,29.82,SSE,154,5.0,15.0,68,0.00,,---,0.00,VWS V14.01,2013-11-20 18:57:00,
2013-11-20 12:59:00,69.8,58.8,29.81,South,184,9.0,15.0,68,0.00,,---,0.00,VWS V14.01,2013-11-20 18:59:00,
2013-11-20 13:00:00,69.9,58.9,29.82,South,180,7.0,12.0,68,0.00,,---,0.00,VWS V14.01,2013-11-20 19:00:00,
2013-11-20 13:03:00,70.2,59.2,29.81,South,190,6.0,12.0,68,0.00,,---,0.00,VWS V14.01,2013-11-20 19:03:00,
2013-11-20 13:06:00,70.3,58.8,29.81,SSW,198,3.0,12.0,67,0.00,,---,0.00,VWS V14.01,2013-11-20 19:06:00,
2013-11-20 13:09:00,70.3,58.8,29.81,SSW,192,7.0,12.0,67,0.00,,---,0.00,VWS V14.01,2013-11-20 19:09:00,
2013-11-20 13:12:00,70.4,58.9,29.81,South,173,3.0,14.0,67,0.00,,---,0.00,VWS V14.01,2013-11-20 19:12:00,
2013-11-20 13:15:00,70.4,58.9,29.81,SSW,194,10.0,16.0,67,0.00,,---,0.00,VWS V14.01,2013-11-20 19:15:00,
2013-11-20 13:18:00,70.4,58.9,29.80,SSW,200,7.0,16.0,67,0.00,,---,0.00,VWS V14.01,2013-11-20 19:18:00,
2013-11-20 13:21:00,70.4,58.9,29.80,SSW,207,8.0,16.0,67,0.00,,---,0.00,VWS V14.01,2013-11-20 19:21:00,
2013-11-20 13:27:00,70.6,59.1,29.80,SSW,205,8.0,16.0,67,0.00,,---,0.00,VWS V14.01,2013-11-20 19:27:00,
2013-11-20 13:29:00,70.7,59.2,29.80,SSW,202,9.0,16.0,67,0.00,,---,0.00,VWS V14.01,2013-11-20 19:29:00,
2013-11-20 13:30:00,70.9,59.4,29.80,South,190,9.0,12.0,67,0.00,,---,0.00,VWS V14.01,2013-11-20 19:30:00,
2013-11-20 13:33:00,71.5,59.6,29.80,South,186,3.0,12.0,66,0.00,,---,0.00,VWS V14.01,2013-11-20 19:33:00,
2013-11-20 13:36:00,72.0,59.6,29.80,South,182,9.0,12.0,65,0.00,,---,0.00,VWS V14.01,2013-11-20 19:36:00,
2013-11-20 13:39:00,72.4,59.5,29.80,SSW,192,4.0,12.0,64,0.00,,---,0.00,VWS V14.01,2013-11-20 19:39:00,
2013-11-20 13:45:00,72.3,59.5,29.79,South,171,9.0,15.0,64,0.00,,---,0.00,VWS V14.01,2013-11-20 19:45:00,
2013-11-20 13:48:00,72.5,59.6,29.79,South,187,8.0,15.0,64,0.00,,---,0.00,VWS V14.01,2013-11-20 19:48:00,
2013-11-20 13:54:00,72.0,59.2,29.79,South,183,8.0,17.0,64,0.00,,---,0.00,VWS V14.01,2013-11-20 19:54:00,
2013-11-20 13:57:00,71.8,59.4,29.79,SSW,205,4.0,17.0,65,0.00,,---,0.00,VWS V14.01,2013-11-20 19:57:00,
2013-11-20 14:00:00,71.7,59.3,29.79,South,171,2.0,12.0,65,0.00,,---,0.00,VWS V14.01,2013-11-20 20:00:00,
2013-11-20 14:03:00,71.6,59.2,29.79,South,183,6.0,14.0,65,0.00,,---,0.00,VWS V14.01,2013-11-20 20:03:00,
2013-11-20 14:06:00,71.4,59.0,29.79,South,176,1.0,14.0,65,0.00,,---,0.00,VWS V14.01,2013-11-20 20:06:00,
2013-11-20 14:09:00,71.4,59.0,29.79,SSE,161,6.0,14.0,65,0.00,,---,0.00,VWS V14.01,2013-11-20 20:09:00,
2013-11-20 14:12:00,71.3,58.9,29.79,South,191,4.0,14.0,65,0.00,,---,0.00,VWS V14.01,2013-11-20 20:12:00,
2013-11-20 14:15:00,71.1,59.2,29.79,SSW,196,10.0,14.0,66,0.00,,---,0.00,VWS V14.01,2013-11-20 20:15:00,
2013-11-20 14:18:00,71.0,59.1,29.78,SSE,155,8.0,14.0,66,0.00,,---,0.00,VWS V14.01,2013-11-20 20:18:00,
2013-11-20 14:21:00,71.1,59.2,29.78,SSE,168,2.0,14.0,66,0.00,,---,0.00,VWS V14.01,2013-11-20 20:21:00,
2013-11-20 14:24:00,71.4,59.5,29.78,South,182,8.0,14.0,66,0.00,,---,0.00,VWS V14.01,2013-11-20 20:24:00,
2013-11-20 14:28:00,71.9,59.9,29.78,South,175,10.0,14.0,66,0.00,,---,0.00,VWS V14.01,2013-11-20 20:28:00,
2013-11-20 14:31:00,72.4,60.0,29.77,SSE,165,0.0,8.0,65,0.00,,---,0.00,VWS V14.01,2013-11-20 20:31:00,
2013-11-20 14:34:00,73.4,60.0,29.77,South,183,10.0,12.0,63,0.00,,---,0.00,VWS V14.01,2013-11-20 20:34:00,
2013-11-20 14:37:00,73.8,60.0,29.78,SSW,204,6.0,16.0,62,0.00,,---,0.00,VWS V14.01,2013-11-20 20:37:00,
2013-11-20 14:43:00,74.2,59.9,29.77,South,169,10.0,16.0,61,0.00,,---,0.00,VWS V14.01,2013-11-20 20:43:00,
2013-11-20 14:46:00,73.7,59.4,29.77,South,169,5.0,16.0,61,0.00,,---,0.00,VWS V14.01,2013-11-20 20:46:00,
2013-11-20 14:52:00,72.7,59.4,29.78,South,180,2.0,16.0,63,0.00,,---,0.00,VWS V14.01,2013-11-20 20:52:00,
2013-11-20 14:55:00,72.9,60.0,29.78,South,169,7.0,16.0,64,0.00,,---,0.00,VWS V14.01,2013-11-20 20:55:00,
2013-11-20 14:58:00,73.0,59.7,29.77,SSW,200,7.0,16.0,63,0.00,,---,0.00,VWS V14.01,2013-11-20 20:58:00,
2013-11-20 14:59:00,73.1,59.8,29.77,SSW,199,8.0,16.0,63,0.00,,---,0.00,VWS V14.01,2013-11-20 20:59:00,
2013-11-20 15:04:00,73.0,59.7,29.77,South,191,5.0,13.0,63,0.00,,---,0.00,VWS V14.01,2013-11-20 21:04:00,
2013-11-20 15:07:00,73.1,59.8,29.77,South,186,8.0,13.0,63,0.00,,---,0.00,VWS V14.01,2013-11-20 21:07:00,
2013-11-20 15:10:00,73.6,60.2,29.77,South,190,3.0,16.0,63,0.00,,---,0.00,VWS V14.01,2013-11-20 21:10:00,
2013-11-20 15:13:00,73.3,59.5,29.78,South,184,3.0,16.0,62,0.00,,---,0.00,VWS V14.01,2013-11-20 21:13:00,
2013-11-20 15:16:00,73.0,59.7,29.77,South,172,3.0,16.0,63,0.00,,---,0.00,VWS V14.01,2013-11-20 21:16:00,
2013-11-20 15:19:00,72.8,59.9,29.77,South,187,5.0,16.0,64,0.00,,---,0.00,VWS V14.01,2013-11-20 21:19:00,
2013-11-20 15:22:00,72.5,59.6,29.78,South,171,8.0,16.0,64,0.00,,---,0.00,VWS V14.01,2013-11-20 21:22:00,
2013-11-20 15:25:00,72.4,59.5,29.77,SSE,148,3.0,16.0,64,0.00,,---,0.00,VWS V14.01,2013-11-20 21:25:00,
2013-11-20 15:28:00,72.4,60.0,29.77,South,169,3.0,16.0,65,0.00,,---,0.00,VWS V14.01,2013-11-20 21:28:00,
2013-11-20 15:29:00,72.4,60.0,29.77,South,173,5.0,16.0,65,0.00,,---,0.00,VWS V14.01,2013-11-20 21:29:00,
2013-11-20 15:34:00,72.2,59.8,29.77,South,173,10.0,14.0,65,0.00,,---,0.00,VWS V14.01,2013-11-20 21:34:00,
2013-11-20 15:37:00,72.1,59.7,29.78,South,177,9.0,14.0,65,0.00,,---,0.00,VWS V14.01,2013-11-20 21:37:00,
2013-11-20 15:40:00,72.1,59.7,29.77,South,182,9.0,14.0,65,0.00,,---,0.00,VWS V14.01,2013-11-20 21:40:00,
2013-11-20 15:43:00,72.1,59.7,29.77,SSE,167,7.0,14.0,65,0.00,,---,0.00,VWS V14.01,2013-11-20 21:43:00,
2013-11-20 15:46:00,72.1,60.1,29.78,South,173,4.0,14.0,66,0.00,,---,0.00,VWS V14.01,2013-11-20 21:46:00,
2013-11-20 15:49:00,72.1,60.1,29.77,SSE,167,6.0,14.0,66,0.00,,---,0.00,VWS V14.01,2013-11-20 21:49:00,
2013-11-20 15:52:00,72.2,60.2,29.78,South,169,9.0,14.0,66,0.00,,---,0.00,VWS V14.01,2013-11-20 21:52:00,
2013-11-20 15:55:00,72.2,59.8,29.78,SSE,148,7.0,14.0,65,0.00,,---,0.00,VWS V14.01,2013-11-20 21:55:00,
2013-11-20 15:58:00,72.1,60.1,29.78,South,171,6.0,14.0,66,0.00,,---,0.00,VWS V14.01,2013-11-20 21:58:00,
2013-11-20 15:59:00,72.1,59.7,29.78,SSE,161,3.0,14.0,65,0.00,,---,0.00,VWS V14.01,2013-11-20 21:59:00,
2013-11-20 16:01:00,72.0,60.0,29.78,SE,142,9.0,10.0,66,0.00,,---,0.00,VWS V14.01,2013-11-20 22:01:00,
2013-11-20 16:07:00,71.6,59.7,29.78,South,171,7.0,12.0,66,0.00,,---,0.00,VWS V14.01,2013-11-20 22:07:00,
2013-11-20 16:10:00,71.5,60.0,29.78,South,178,5.0,12.0,67,0.00,,---,0.00,VWS V14.01,2013-11-20 22:10:00,
2013-11-20 16:13:00,71.4,59.9,29.78,South,175,4.0,12.0,67,0.00,,---,0.00,VWS V14.01,2013-11-20 22:13:00,
2013-11-20 16:16:00,71.3,59.8,29.78,SSE,168,7.0,12.0,67,0.00,,---,0.00,VWS V14.01,2013-11-20 22:16:00,
2013-11-20 16:19:00,71.2,59.7,29.77,South,185,7.0,12.0,67,0.00,,---,0.00,VWS V14.01,2013-11-20 22:19:00,
2013-11-20 16:22:00,71.1,60.0,29.78,SE,146,3.0,12.0,68,0.00,,---,0.00,VWS V14.01,2013-11-20 22:22:00,
2013-11-20 16:25:00,71.1,60.0,29.78,SE,130,5.0,12.0,68,0.00,,---,0.00,VWS V14.01,2013-11-20 22:25:00,
2013-11-20 16:31:00,70.9,59.8,29.78,SSE,153,4.0,8.0,68,0.00,,---,0.00,VWS V14.01,2013-11-20 22:31:00,
2013-11-20 16:37:00,70.6,60.0,29.78,South,189,6.0,10.0,69,0.00,,---,0.00,VWS V14.01,2013-11-20 22:37:00,
2013-11-20 16:40:00,70.5,59.8,29.78,South,171,7.0,10.0,69,0.00,,---,0.00,VWS V14.01,2013-11-20 22:40:00,
2013-11-20 16:43:00,70.5,59.8,29.78,South,180,3.0,10.0,69,0.00,,---,0.00,VWS V14.01,2013-11-20 22:43:00,
2013-11-20 16:46:00,70.4,59.8,29.78,SE,142,3.0,10.0,69,0.00,,---,0.00,VWS V14.01,2013-11-20 22:46:00,
2013-11-20 16:53:00,70.4,59.8,29.78,SE,134,5.0,11.0,69,0.00,,---,0.00,VWS V14.01,2013-11-20 22:53:00,
2013-11-20 16:59:00,70.1,59.5,29.78,SE,136,2.0,11.0,69,0.00,,---,0.00,VWS V14.01,2013-11-20 22:59:00,
2013-11-20 17:02:00,69.9,59.7,29.78,SSE,154,7.0,9.0,70,0.00,,---,0.00,VWS V14.01,2013-11-20 23:02:00,
2013-11-20 17:05:00,69.7,59.5,29.78,SSE,155,2.0,12.0,70,0.00,,---,0.00,VWS V14.01,2013-11-20 23:05:00,
2013-11-20 17:08:00,69.5,59.7,29.78,SSE,155,6.0,12.0,71,0.00,,---,0.00,VWS V14.01,2013-11-20 23:08:00,
2013-11-20 17:11:00,69.4,59.6,29.78,SSE,157,11.0,12.0,71,0.00,,---,0.00,VWS V14.01,2013-11-20 23:11:00,
2013-11-20 17:17:00,69.1,59.7,29.78,SSE,147,6.0,12.0,72,0.00,,---,0.00,VWS V14.01,2013-11-20 23:17:00,
2013-11-20 17:20:00,69.0,59.6,29.78,SSE,159,4.0,12.0,72,0.00,,---,0.00,VWS V14.01,2013-11-20 23:20:00,
2013-11-20 17:23:00,68.9,59.5,29.78,SSE,153,4.0,12.0,72,0.00,,---,0.00,VWS V14.01,2013-11-20 23:23:00,
2013-11-20 17:26:00,68.9,59.5,29.78,SSE,152,0.0,12.0,72,0.00,,---,0.00,VWS V14.01,2013-11-20 23:26:00,
2013-11-20 17:29:00,68.8,59.8,29.79,SSE,153,4.0,12.0,73,0.00,,---,0.00,VWS V14.01,2013-11-20 23:29:00,
2013-11-20 17:32:00,68.8,59.8,29.79,SSE,166,7.0,13.0,73,0.00,,---,0.00,VWS V14.01,2013-11-20 23:32:00,
2013-11-20 17:38:00,68.6,59.6,29.79,SE,144,4.0,13.0,73,0.00,,---,0.00,VWS V14.01,2013-11-20 23:38:00,
2013-11-20 17:44:00,68.5,59.5,29.79,SE,139,6.0,13.0,73,0.00,,---,0.00,VWS V14.01,2013-11-20 23:44:00,
2013-11-20 17:47:00,68.5,59.5,29.79,SSE,147,5.0,13.0,73,0.00,,---,0.00,VWS V14.01,2013-11-20 23:47:00,
2013-11-20 17:50:00,68.5,59.5,29.79,SSE,158,7.0,13.0,73,0.00,,---,0.00,VWS V14.01,2013-11-20 23:50:00,
2013-11-20 17:53:00,68.5,59.5,29.79,SSE,148,4.0,13.0,73,0.00,,---,0.00,VWS V14.01,2013-11-20 23:53:00,
2013-11-20 17:56:00,68.5,59.5,29.80,South,171,1.0,13.0,73,0.00,,---,0.00,VWS V14.01,2013-11-20 23:56:00,
2013-11-20 17:59:00,68.5,59.5,29.80,South,171,7.0,13.0,73,0.00,,---,0.00,VWS V14.01,2013-11-20 23:59:00,
2013-11-20 18:02:00,68.5,59.5,29.80,SSE,150,4.0,11.0,73,0.00,,---,0.00,VWS V14.01,2013-11-21 00:02:00,
2013-11-20 18:05:00,68.5,59.9,29.80,SSE,155,4.0,12.0,74,0.00,,---,0.00,VWS V14.01,2013-11-21 00:05:00,
2013-11-20 18:08:00,68.5,59.9,29.80,SSE,154,6.0,13.0,74,0.00,,---,0.00,VWS V14.01,2013-11-21 00:08:00,
2013-11-20 18:11:00,68.5,59.9,29.80,SE,143,7.0,13.0,74,0.00,,---,0.00,VWS V14.01,2013-11-21 00:11:00,
2013-11-20 18:14:00,68.5,59.9,29.80,SSE,167,0.0,13.0,74,0.00,,---,0.00,VWS V14.01,2013-11-21 00:14:00,
2013-11-20 18:17:00,68.5,59.9,29.80,SSW,192,0.0,13.0,74,0.00,,---,0.00,VWS V14.01,2013-11-21 00:17:00,
2013-11-20 18:20:00,68.4,59.8,29.81,SSE,159,6.0,13.0,74,0.00,,---,0.00,VWS V14.01,2013-11-21 00:20:00,
2013-11-20 18:26:00,68.3,59.7,29.81,South,174,1.0,13.0,74,0.00,,---,0.00,VWS V14.01,2013-11-21 00:26:00,
2013-11-20 18:29:00,68.3,59.7,29.81,SSE,148,3.0,6.0,74,0.00,,---,0.00,VWS V14.01,2013-11-21 00:29:00,
2013-11-20 18:35:00,68.3,59.7,29.81,SSE,156,8.0,13.0,74,0.00,,---,0.00,VWS V14.01,2013-11-21 00:35:00,
2013-11-20 18:38:00,68.3,59.7,29.81,SE,146,8.0,13.0,74,0.00,,---,0.00,VWS V14.01,2013-11-21 00:38:00,
2013-11-20 18:41:00,68.3,59.7,29.81,SSE,161,4.0,13.0,74,0.00,,---,0.00,VWS V14.01,2013-11-21 00:41:00,
2013-11-20 18:47:00,68.4,59.8,29.81,SSE,162,5.0,13.0,74,0.00,,---,0.00,VWS V14.01,2013-11-21 00:47:00,
2013-11-20 18:50:00,68.3,59.7,29.81,SSE,164,5.0,13.0,74,0.00,,---,0.00,VWS V14.01,2013-11-21 00:50:00,
2013-11-20 18:56:00,68.4,59.8,29.81,SSE,157,5.0,13.0,74,0.00,,---,0.00,VWS V14.01,2013-11-21 00:56:00,
2013-11-20 18:59:00,68.4,59.8,29.81,SSE,165,2.0,13.0,74,0.00,,---,0.00,VWS V14.01,2013-11-21 00:59:00,
2013-11-20 19:00:00,68.4,59.8,29.81,SSE,153,4.0,6.0,74,0.00,,---,0.00,VWS V14.01,2013-11-21 01:00:00,
2013-11-20 19:06:00,68.5,59.9,29.82,SSE,151,13.0,14.0,74,0.00,,---,0.00,VWS V14.01,2013-11-21 01:06:00,
2013-11-20 19:09:00,68.5,59.9,29.82,SE,134,14.0,14.0,74,0.00,,---,0.00,VWS V14.01,2013-11-21 01:09:00,
2013-11-20 19:12:00,68.5,59.9,29.82,SE,146,4.0,14.0,74,0.00,,---,0.00,VWS V14.01,2013-11-21 01:12:00,
2013-11-20 19:18:00,68.5,59.9,29.82,SSE,159,3.0,14.0,74,0.00,,---,0.00,VWS V14.01,2013-11-21 01:18:00,
2013-11-20 19:21:00,68.4,59.8,29.82,SSE,155,3.0,14.0,74,0.00,,---,0.00,VWS V14.01,2013-11-21 01:21:00,
2013-11-20 19:24:00,68.4,59.8,29.82,SSE,149,7.0,14.0,74,0.00,,---,0.00,VWS V14.01,2013-11-21 01:24:00,
2013-11-20 19:27:00,68.4,60.2,29.82,SE,141,9.0,15.0,75,0.00,,---,0.00,VWS V14.01,2013-11-21 01:27:00,
2013-11-20 19:29:00,68.4,60.2,29.82,SSE,165,4.0,15.0,75,0.00,,---,0.00,VWS V14.01,2013-11-21 01:29:00,
2013-11-20 19:30:00,68.4,60.2,29.82,SE,145,7.0,8.0,75,0.00,,---,0.00,VWS V14.01,2013-11-21 01:30:00,
2013-11-20 19:33:00,68.5,60.3,29.81,SE,141,10.0,14.0,75,0.00,,---,0.00,VWS V14.01,2013-11-21 01:33:00,
2013-11-20 19:36:00,68.5,60.3,29.81,South,172,10.0,15.0,75,0.00,,---,0.00,VWS V14.01,2013-11-21 01:36:00,
2013-11-20 19:39:00,68.5,60.3,29.81,SE,133,10.0,15.0,75,0.00,,---,0.00,VWS V14.01,2013-11-21 01:39:00,
2013-11-20 19:42:00,68.5,60.3,29.81,SSE,148,10.0,15.0,75,0.00,,---,0.00,VWS V14.01,2013-11-21 01:42:00,
2013-11-20 19:45:00,68.5,60.3,29.81,South,172,9.0,15.0,75,0.00,,---,0.00,VWS V14.01,2013-11-21 01:45:00,
2013-11-20 19:48:00,68.5,60.3,29.81,SE,138,7.0,15.0,75,0.00,,---,0.00,VWS V14.01,2013-11-21 01:48:00,
2013-11-20 19:51:00,68.5,60.3,29.81,SSE,157,8.0,15.0,75,0.00,,---,0.00,VWS V14.01,2013-11-21 01:51:00,
2013-11-20 19:54:00,68.5,60.3,29.82,SSE,157,13.0,15.0,75,0.00,,---,0.00,VWS V14.01,2013-11-21 01:54:00,
2013-11-20 20:00:00,68.6,60.4,29.82,SSE,153,14.0,14.0,75,0.00,,---,0.00,VWS V14.01,2013-11-21 02:00:00,
2013-11-20 20:03:00,68.6,60.4,29.82,SSE,155,6.0,14.0,75,0.00,,---,0.00,VWS V14.01,2013-11-21 02:03:00,
2013-11-20 20:06:00,68.6,60.4,29.82,SE,146,6.0,15.0,75,0.00,,---,0.00,VWS V14.01,2013-11-21 02:06:00,
2013-11-20 20:12:00,68.6,60.4,29.82,SSW,198,3.0,15.0,75,0.00,,---,0.00,VWS V14.01,2013-11-21 02:12:00,
2013-11-20 20:18:00,68.5,60.6,29.82,SE,133,9.0,15.0,76,0.00,,---,0.00,VWS V14.01,2013-11-21 02:18:00,
2013-11-20 20:21:00,68.5,60.6,29.82,SSE,148,6.0,15.0,76,0.00,,---,0.00,VWS V14.01,2013-11-21 02:21:00,
2013-11-20 20:24:00,68.4,60.5,29.83,SE,132,8.0,18.0,76,0.00,,---,0.00,VWS V14.01,2013-11-21 02:24:00,
2013-11-20 20:27:00,68.3,60.5,29.83,SE,138,6.0,18.0,76,0.00,,---,0.00,VWS V14.01,2013-11-21 02:27:00,
2013-11-20 20:29:00,68.3,60.5,29.83,SSE,148,6.0,18.0,76,0.00,,---,0.00,VWS V14.01,2013-11-21 02:29:00,
2013-11-20 20:30:00,68.3,60.5,29.83,SSE,151,6.0,11.0,76,0.00,,---,0.00,VWS V14.01,2013-11-21 02:30:00,
2013-11-20 20:36:00,68.0,60.2,29.83,SE,138,5.0,12.0,76,0.00,,---,0.00,VWS V14.01,2013-11-21 02:36:00,
2013-11-20 20:39:00,67.8,60.3,29.83,SE,142,5.0,12.0,77,0.00,,---,0.00,VWS V14.01,2013-11-21 02:39:00,
2013-11-20 20:42:00,67.6,60.1,29.83,SSE,154,7.0,14.0,77,0.00,,---,0.00,VWS V14.01,2013-11-21 02:42:00,
2013-11-20 20:45:00,67.5,60.0,29.83,SSE,161,4.0,14.0,77,0.00,,---,0.00,VWS V14.01,2013-11-21 02:45:00,
2013-11-20 20:48:00,67.3,60.2,29.83,SSE,153,5.0,14.0,78,0.00,,---,0.00,VWS V14.01,2013-11-21 02:48:00,
2013-11-20 20:51:00,67.2,60.1,29.83,SSE,161,6.0,14.0,78,0.00,,---,0.00,VWS V14.01,2013-11-21 02:51:00,
2013-11-20 20:54:00,67.0,59.9,29.83,SSE,149,10.0,16.0,78,0.00,,---,0.00,VWS V14.01,2013-11-21 02:54:00,
2013-11-20 20:57:00,66.8,59.7,29.83,SSE,167,8.0,16.0,78,0.00,,---,0.00,VWS V14.01,2013-11-21 02:57:00,
2013-11-20 20:59:00,66.7,59.6,29.83,SE,146,8.0,16.0,78,0.00,,---,0.00,VWS V14.01,2013-11-21 02:59:00,
2013-11-20 21:01:00,66.5,59.4,29.83,SSE,165,10.0,14.0,78,0.00,,---,0.00,VWS V14.01,2013-11-21 03:01:00,
2013-11-20 21:07:00,65.8,58.8,29.83,SSE,155,3.0,14.0,78,0.00,,---,0.00,VWS V14.01,2013-11-21 03:07:00,
2013-11-20 21:10:00,65.5,58.5,29.83,SSE,168,12.0,18.0,78,0.00,,---,0.00,VWS V14.01,2013-11-21 03:10:00,
2013-11-20 21:13:00,65.2,58.5,29.83,SE,138,16.0,18.0,79,0.00,,---,0.00,VWS V14.01,2013-11-21 03:13:00,
2013-11-20 21:16:00,65.1,58.4,29.83,SSE,150,8.0,19.0,79,0.00,,---,0.00,VWS V14.01,2013-11-21 03:16:00,
2013-11-20 21:19:00,65.0,58.3,29.83,SE,146,6.0,19.0,79,0.00,,---,0.00,VWS V14.01,2013-11-21 03:19:00,
2013-11-20 21:22:00,64.8,58.1,29.83,SE,142,11.0,19.0,79,0.00,,---,0.00,VWS V14.01,2013-11-21 03:22:00,
2013-11-20 21:25:00,64.7,58.4,29.83,SSE,148,6.0,19.0,80,0.00,,---,0.00,VWS V14.01,2013-11-21 03:25:00,
2013-11-20 21:28:00,64.5,58.2,29.84,South,173,5.0,19.0,80,0.00,,---,0.00,VWS V14.01,2013-11-21 03:28:00,
2013-11-20 21:34:00,64.2,57.9,29.84,SSE,151,8.0,10.0,80,0.00,,---,0.00,VWS V14.01,2013-11-21 03:34:00,
2013-11-20 21:37:00,64.1,57.8,29.84,SE,144,4.0,10.0,80,0.00,,---,0.00,VWS V14.01,2013-11-21 03:37:00,
2013-11-20 21:40:00,64.0,58.1,29.84,SSE,157,3.0,11.0,81,0.00,,---,0.00,VWS V14.01,2013-11-21 03:40:00,
2013-11-20 21:46:00,63.8,57.9,29.84,SSE,161,6.0,11.0,81,0.00,,---,0.00,VWS V14.01,2013-11-21 03:46:00,
2013-11-20 21:49:00,63.7,57.8,29.85,SSE,151,6.0,11.0,81,0.00,,---,0.00,VWS V14.01,2013-11-21 03:49:00,
2013-11-20 21:52:00,63.6,57.7,29.84,SSE,166,7.0,11.0,81,0.00,,---,0.00,VWS V14.01,2013-11-21 03:52:00,
2013-11-20 21:55:00,63.6,58.0,29.85,SSE,155,2.0,11.0,82,0.00,,---,0.00,VWS V14.01,2013-11-21 03:55:00,
2013-11-20 21:58:00,63.5,57.9,29.85,SE,144,5.0,11.0,82,0.00,,---,0.00,VWS V14.01,2013-11-21 03:58:00,
2013-11-20 21:59:00,63.5,57.9,29.85,SSE,156,4.0,11.0,82,0.00,,---,0.00,VWS V14.01,2013-11-21 03:59:00,
2013-11-20 22:01:00,63.4,57.8,29.85,SE,142,3.0,7.0,82,0.00,,---,0.00,VWS V14.01,2013-11-21 04:01:00,
2013-11-20 22:03:00,62.4,57.8,29.84,SSE,151,3.0,10.0,85,0.00,,---,0.00,VWS V14.01,2013-11-21 04:03:00,
2013-11-20 22:04:00,63.4,57.8,29.85,SSE,148,2.0,11.0,82,0.00,,---,0.00,VWS V14.01,2013-11-21 04:04:00,
2013-11-20 22:06:00,62.4,57.8,29.84,SSE,153,7.0,12.0,85,0.00,,---,0.00,VWS V14.01,2013-11-21 04:06:00,
2013-11-20 22:07:00,63.3,57.7,29.85,SSE,149,0.0,11.0,82,0.00,,---,0.00,VWS V14.01,2013-11-21 04:07:00,
2013-11-20 22:09:00,62.5,58.3,29.84,SE,142,7.0,12.0,86,0.00,,---,0.00,VWS V14.01,2013-11-21 04:09:00,
2013-11-20 22:10:00,63.3,57.7,29.85,SSE,155,5.0,11.0,82,0.00,,---,0.00,VWS V14.01,2013-11-21 04:10:00,
2013-11-20 22:12:00,62.5,58.3,29.84,SE,145,8.0,12.0,86,0.00,,---,0.00,VWS V14.01,2013-11-21 04:12:00,
2013-11-20 22:13:00,63.2,57.6,29.85,SSE,163,7.0,11.0,82,0.00,,---,0.00,VWS V14.01,2013-11-21 04:13:00,
2013-11-20 22:15:00,62.6,58.4,29.84,SE,135,5.0,12.0,86,0.00,,---,0.00,VWS V14.01,2013-11-21 04:15:00,
2013-11-20 22:16:00,63.2,57.6,29.85,SSE,148,0.0,11.0,82,0.00,,---,0.00,VWS V14.01,2013-11-21 04:16:00,
2013-11-20 22:18:00,62.7,58.5,29.84,SE,145,12.0,13.0,86,0.00,,---,0.00,VWS V14.01,2013-11-21 04:18:00,
2013-11-20 22:19:00,63.1,57.9,29.85,South,188,4.0,11.0,83,0.00,,---,0.00,VWS V14.01,2013-11-21 04:19:00,
2013-11-20 22:21:00,62.7,58.5,29.84,SSE,157,7.0,13.0,86,0.00,,---,0.00,VWS V14.01,2013-11-21 04:21:00,
2013-11-20 22:22:00,63.0,57.8,29.86,South,186,7.0,11.0,83,0.00,,---,0.00,VWS V14.01,2013-11-21 04:22:00,
2013-11-20 22:24:00,62.7,58.5,29.84,SSE,158,9.0,13.0,86,0.00,,---,0.00,VWS V14.01,2013-11-21 04:24:00,
2013-11-20 22:25:00,63.0,57.8,29.86,South,175,2.0,11.0,83,0.00,,---,0.00,VWS V14.01,2013-11-21 04:25:00,
2013-11-20 22:27:00,62.7,58.5,29.84,SE,136,6.0,13.0,86,0.00,,---,0.00,VWS V14.01,2013-11-21 04:27:00,
2013-11-20 22:28:00,63.0,58.1,29.86,SSE,155,6.0,11.0,84,0.00,,---,0.00,VWS V14.01,2013-11-21 04:28:00,
2013-11-20 22:29:00,63.0,58.1,29.86,South,182,5.0,11.0,84,0.00,,---,0.00,VWS V14.01,2013-11-21 04:29:00,
2013-11-20 22:30:00,62.7,58.1,29.84,SSE,167,7.0,13.0,85,0.00,,---,0.00,VWS V14.01,2013-11-21 04:30:00,
2013-11-20 22:31:00,63.0,58.1,29.86,SE,138,5.0,10.0,84,0.00,,---,0.00,VWS V14.01,2013-11-21 04:31:00,
2013-11-20 22:33:00,62.6,58.4,29.84,SSE,159,6.0,11.0,86,0.00,,---,0.00,VWS V14.01,2013-11-21 04:33:00,
2013-11-20 22:36:00,62.5,58.3,29.84,ESE,107,16.0,16.0,86,0.00,,---,0.00,VWS V14.01,2013-11-21 04:36:00,
2013-11-20 22:37:00,62.9,58.0,29.85,SSE,155,6.0,10.0,84,0.00,,---,0.00,VWS V14.01,2013-11-21 04:37:00,
2013-11-20 22:39:00,62.6,58.4,29.84,South,170,11.0,16.0,86,0.00,,---,0.00,VWS V14.01,2013-11-21 04:39:00,
2013-11-20 22:40:00,62.8,57.9,29.85,SSE,153,7.0,11.0,84,0.00,,---,0.00,VWS V14.01,2013-11-21 04:40:00,
2013-11-20 22:42:00,62.6,58.4,29.84,SSE,156,7.0,16.0,86,0.00,,---,0.00,VWS V14.01,2013-11-21 04:42:00,
2013-11-20 22:43:00,62.7,57.8,29.85,SSE,152,4.0,11.0,84,0.00,,---,0.00,VWS V14.01,2013-11-21 04:43:00,
2013-11-20 22:45:00,62.6,58.4,29.85,SSE,150,6.0,16.0,86,0.00,,---,0.00,VWS V14.01,2013-11-21 04:45:00,
2013-11-20 22:46:00,62.6,57.7,29.85,SE,141,5.0,11.0,84,0.00,,---,0.00,VWS V14.01,2013-11-21 04:46:00,
2013-11-20 22:48:00,62.5,58.3,29.85,SSE,165,4.0,16.0,86,0.00,,---,0.00,VWS V14.01,2013-11-21 04:48:00,
2013-11-20 22:49:00,62.6,58.0,29.85,SE,132,4.0,11.0,85,0.00,,---,0.00,VWS V14.01,2013-11-21 04:49:00,
2013-11-20 22:51:00,62.5,58.3,29.85,SSE,157,0.0,16.0,86,0.00,,---,0.00,VWS V14.01,2013-11-21 04:51:00,
2013-11-20 22:52:00,62.6,57.7,29.85,SE,140,5.0,11.0,84,0.00,,---,0.00,VWS V14.01,2013-11-21 04:52:00,
2013-11-20 22:54:00,62.4,58.2,29.84,South,178,1.0,16.0,86,0.00,,---,0.00,VWS V14.01,2013-11-21 04:54:00,
2013-11-20 22:55:00,62.5,57.9,29.85,SSE,155,4.0,11.0,85,0.00,,---,0.00,VWS V14.01,2013-11-21 04:55:00,
2013-11-20 22:57:00,62.3,58.1,29.84,South,169,4.0,16.0,86,0.00,,---,0.00,VWS V14.01,2013-11-21 04:57:00,
2013-11-20 22:58:00,62.4,57.8,29.85,SSE,151,4.0,11.0,85,0.00,,---,0.00,VWS V14.01,2013-11-21 04:58:00,
2013-11-20 22:59:00,62.4,57.8,29.85,SSE,155,4.0,11.0,85,0.00,,---,0.00,VWS V14.01,2013-11-21 04:59:00,
2013-11-20 23:00:00,62.3,58.4,29.84,South,171,3.0,16.0,87,0.00,,---,0.00,VWS V14.01,2013-11-21 05:00:00,
2013-11-20 23:03:00,62.2,58.3,29.85,South,169,0.0,8.0,87,0.00,,---,0.00,VWS V14.01,2013-11-21 05:03:00,
2013-11-20 23:06:00,62.2,58.3,29.85,SSE,155,4.0,10.0,87,0.00,,---,0.00,VWS V14.01,2013-11-21 05:06:00,
2013-11-20 23:09:00,62.2,58.3,29.84,SE,140,9.0,10.0,87,0.00,,---,0.00,VWS V14.01,2013-11-21 05:09:00,
2013-11-20 23:12:00,62.2,58.3,29.84,SSE,152,8.0,10.0,87,0.00,,---,0.00,VWS V14.01,2013-11-21 05:12:00,
2013-11-20 23:15:00,62.1,58.2,29.85,South,169,1.0,10.0,87,0.00,,---,0.00,VWS V14.01,2013-11-21 05:15:00,
2013-11-20 23:18:00,62.1,58.2,29.84,SSE,162,0.0,10.0,87,0.00,,---,0.00,VWS V14.01,2013-11-21 05:18:00,
2013-11-20 23:21:00,62.0,58.1,29.85,South,173,0.0,10.0,87,0.00,,---,0.00,VWS V14.01,2013-11-21 05:21:00,
2013-11-20 23:24:00,62.0,58.1,29.85,South,175,4.0,10.0,87,0.00,,---,0.00,VWS V14.01,2013-11-21 05:24:00,
2013-11-20 23:27:00,61.9,58.0,29.85,SSE,159,3.0,10.0,87,0.00,,---,0.00,VWS V14.01,2013-11-21 05:27:00,
2013-11-20 23:30:00,61.9,58.0,29.85,South,169,5.0,10.0,87,0.00,,---,0.00,VWS V14.01,2013-11-21 05:30:00,
2013-11-20 23:33:00,61.8,58.2,29.85,South,175,0.0,8.0,88,0.00,,---,0.00,VWS V14.01,2013-11-21 05:33:00,
2013-11-20 23:36:00,61.9,58.3,29.85,SSE,156,0.0,8.0,88,0.00,,---,0.00,VWS V14.01,2013-11-21 05:36:00,
2013-11-20 23:39:00,61.8,58.2,29.84,SSE,159,0.0,8.0,88,0.00,,---,0.00,VWS V14.01,2013-11-21 05:39:00,
2013-11-20 23:42:00,61.8,58.2,29.84,South,170,0.0,8.0,88,0.00,,---,0.00,VWS V14.01,2013-11-21 05:42:00,
2013-11-20 23:45:00,61.8,58.2,29.84,South,171,3.0,8.0,88,0.00,,---,0.00,VWS V14.01,2013-11-21 05:45:00,
2013-11-20 23:48:00,61.9,58.6,29.85,South,182,5.0,8.0,89,0.00,,---,0.00,VWS V14.01,2013-11-21 05:48:00,
2013-11-20 23:51:00,61.9,58.6,29.84,SSE,167,7.0,8.0,89,0.00,,---,0.00,VWS V14.01,2013-11-21 05:51:00,
2013-11-20 23:54:00,62.0,58.7,29.84,SSE,167,0.0,8.0,89,0.00,,---,0.00,VWS V14.01,2013-11-21 05:54:00,
2013-11-20 23:57:00,62.0,58.7,29.84,South,171,2.0,8.0,89,0.00,,---,0.00,VWS V14.01,2013-11-21 05:57:00,